Time;durP1;ratioP1;P1;durP2;ratioP2;P2;SDS_P1;SDS_P2;PMS_P1;PMS_P2;Temp;Humidity;BMP_temperature;BMP_pressure;BME280_temperature;BME280_humidity;BME280_pressure;Samples;Min_cycle;Max_cycle;Signal;HPM_P1;HPM_P2
2023/08/27 00:00:05;;;;;;;4.57;2.63;;;;;;;;;;5052735;28;20202;-84
2023/08/27 00:02:32;;;;;;;3.23;2.23;;;;;;;;;;5053364;28;20603;-83
2023/08/27 00:04:59;;;;;;;3.10;2.80;;;;;;;;;;5053412;28;20212;-83
2023/08/27 00:07:27;;;;;;;2.97;2.70;;;;;;;;;;5052439;28;20237;-83
2023/08/27 00:09:55;;;;;;;4.10;2.87;;;;;;;;;;5053187;28;20323;-83
2023/08/27 00:12:22;;;;;;;2.93;2.50;;;;;;;;;;5052326;28;20764;-83
2023/08/27 00:14:49;;;;;;;2.50;2.30;;;;;;;;;;5044849;28;20206;-83
2023/08/27 00:17:16;;;;;;;3.60;2.67;;;;;;;;;;5052206;28;20233;-83
2023/08/27 00:19:43;;;;;;;3.40;2.60;;;;;;;;;;5052815;28;20206;-83
2023/08/27 00:22:10;;;;;;;3.20;2.60;;;;;;;;;;5052251;28;20325;-83
2023/08/27 00:24:38;;;;;;;3.40;3.10;;;;;;;;;;5052715;28;20198;-83
2023/08/27 00:27:06;;;;;;;5.60;2.77;;;;;;;;;;5049688;28;20233;-83
2023/08/27 00:29:34;;;;;;;7.73;3.43;;;;;;;;;;5052852;28;20213;-83
2023/08/27 00:32:01;;;;;;;6.57;3.23;;;;;;;;;;5052003;28;20596;-83
2023/08/27 00:34:32;;;;;;;5.13;3.00;;;;;;;;;;5052556;28;20285;-83
2023/08/27 00:36:59;;;;;;;5.33;2.67;;;;;;;;;;5052040;28;20299;-83
2023/08/27 00:39:26;;;;;;;3.13;2.83;;;;;;;;;;5052503;28;20276;-83
2023/08/27 00:41:53;;;;;;;5.73;3.00;;;;;;;;;;5052002;28;20244;-83
2023/08/27 00:44:22;;;;;;;2.90;2.70;;;;;;;;;;5044153;28;20203;-83
2023/08/27 00:46:49;;;;;;;4.17;2.97;;;;;;;;;;5051841;28;20711;-83
2023/08/27 00:49:16;;;;;;;4.70;3.10;;;;;;;;;;5052502;28;20214;-83
2023/08/27 00:51:44;;;;;;;3.87;3.00;;;;;;;;;;5050917;28;20241;-83
2023/08/27 00:54:11;;;;;;;4.97;2.77;;;;;;;;;;5052320;28;20206;-83
2023/08/27 00:56:39;;;;;;;5.50;3.33;;;;;;;;;;5051542;28;20229;-83
2023/08/27 00:59:06;;;;;;;3.20;2.90;;;;;;;;;;5052471;28;20215;-83
2023/08/27 01:01:34;;;;;;;3.97;3.33;;;;;;;;;;5050902;28;20245;-83
2023/08/27 01:04:01;;;;;;;4.80;3.17;;;;;;;;;;5052089;28;20229;-83
2023/08/27 01:06:29;;;;;;;4.77;2.97;;;;;;;;;;5051852;28;20222;-83
2023/08/27 01:08:59;;;;;;;4.17;2.87;;;;;;;;;;5049834;28;20682;-83
2023/08/27 01:11:28;;;;;;;3.80;2.90;;;;;;;;;;5039851;28;20240;-83
2023/08/27 01:13:57;;;;;;;3.63;2.60;;;;;;;;;;5048688;28;20687;-83
2023/08/27 01:16:25;;;;;;;3.10;2.80;;;;;;;;;;5043482;28;20706;-83
2023/08/27 01:18:53;;;;;;;7.27;3.17;;;;;;;;;;5052428;28;20202;-83
2023/08/27 01:21:22;;;;;;;3.60;3.17;;;;;;;;;;5051113;28;20234;-83
2023/08/27 01:23:49;;;;;;;3.33;3.03;;;;;;;;;;5043781;28;20711;-83
2023/08/27 01:26:19;;;;;;;4.93;3.20;;;;;;;;;;5051634;28;20674;-83
2023/08/27 01:28:47;;;;;;;4.03;3.00;;;;;;;;;;5052568;28;20225;-82
2023/08/27 01:31:17;;;;;;;6.87;3.03;;;;;;;;;;5051514;28;20242;-82
2023/08/27 01:33:46;;;;;;;6.70;3.13;;;;;;;;;;5053173;28;20259;-82
2023/08/27 01:36:14;;;;;;;4.57;3.10;;;;;;;;;;5052725;28;20666;-82
2023/08/27 01:38:43;;;;;;;7.47;3.30;;;;;;;;;;5052739;28;20210;-82
2023/08/27 01:41:10;;;;;;;3.80;3.50;;;;;;;;;;5052655;28;20606;-83
2023/08/27 01:43:37;;;;;;;3.13;2.83;;;;;;;;;;5052373;28;20209;-83
2023/08/27 01:46:04;;;;;;;3.63;3.13;;;;;;;;;;5050299;28;20246;-83
2023/08/27 01:48:31;;;;;;;7.20;3.20;;;;;;;;;;5060970;28;20238;-82
2023/08/27 01:50:58;;;;;;;4.30;3.33;;;;;;;;;;5061440;28;20325;-82
2023/08/27 01:53:25;;;;;;;4.43;2.80;;;;;;;;;;5046713;28;20206;-83
2023/08/27 01:55:53;;;;;;;3.87;2.90;;;;;;;;;;5052383;28;20236;-82
2023/08/27 01:58:21;;;;;;;4.00;3.17;;;;;;;;;;5052321;28;20213;-82
2023/08/27 02:00:50;;;;;;;5.00;3.50;;;;;;;;;;5051547;28;20238;-82
2023/08/27 02:03:17;;;;;;;3.57;3.10;;;;;;;;;;5043305;28;20211;-83
2023/08/27 02:05:44;;;;;;;3.50;3.20;;;;;;;;;;5051182;28;20245;-83
2023/08/27 02:08:11;;;;;;;7.73;4.43;;;;;;;;;;5051140;28;20288;-83
2023/08/27 02:10:38;;;;;;;3.20;3.00;;;;;;;;;;5050924;28;20252;-82
2023/08/27 02:13:06;;;;;;;5.43;3.10;;;;;;;;;;5051886;28;20197;-82
2023/08/27 02:15:33;;;;;;;3.50;3.23;;;;;;;;;;5051138;28;20242;-83
2023/08/27 02:18:00;;;;;;;5.13;2.97;;;;;;;;;;5051218;28;20206;-83
2023/08/27 02:20:28;;;;;;;3.80;3.30;;;;;;;;;;5042050;28;20620;-83
2023/08/27 02:22:55;;;;;;;5.90;3.37;;;;;;;;;;5052095;28;20244;-86
2023/08/27 02:25:22;;;;;;;4.40;3.00;;;;;;;;;;5051445;28;20656;-86
2023/08/27 02:27:49;;;;;;;3.50;3.20;;;;;;;;;;5051997;28;20565;-86
2023/08/27 02:30:17;;;;;;;6.47;3.40;;;;;;;;;;5050901;28;20687;-86
2023/08/27 02:32:44;;;;;;;3.77;3.43;;;;;;;;;;5052330;28;20206;-86
2023/08/27 02:35:12;;;;;;;3.83;3.50;;;;;;;;;;5051170;28;20202;-86
2023/08/27 02:37:39;;;;;;;5.37;3.47;;;;;;;;;;5051990;28;20746;-86
2023/08/27 02:40:06;;;;;;;5.13;3.60;;;;;;;;;;5058183;28;20218;-86
2023/08/27 02:42:33;;;;;;;8.13;3.83;;;;;;;;;;5060863;28;20186;-86
2023/08/27 02:45:00;;;;;;;5.03;4.10;;;;;;;;;;5060125;28;20221;-86
2023/08/27 02:47:29;;;;;;;5.67;3.70;;;;;;;;;;5041440;28;20227;-87
2023/08/27 02:49:56;;;;;;;4.20;3.80;;;;;;;;;;5048788;28;20203;-87
2023/08/27 02:52:23;;;;;;;3.93;3.53;;;;;;;;;;5051858;28;20233;-86
2023/08/27 02:54:50;;;;;;;7.67;3.97;;;;;;;;;;5052184;28;20209;-86
2023/08/27 02:57:17;;;;;;;3.70;3.40;;;;;;;;;;5050679;28;20233;-86
2023/08/27 02:59:44;;;;;;;7.37;3.70;;;;;;;;;;5051229;28;20206;-86
2023/08/27 03:02:11;;;;;;;5.03;3.90;;;;;;;;;;5051016;28;20253;-86
2023/08/27 03:04:39;;;;;;;4.03;3.63;;;;;;;;;;5051680;28;20225;-86
2023/08/27 03:07:06;;;;;;;4.70;3.70;;;;;;;;;;5050700;28;20230;-86
2023/08/27 03:09:33;;;;;;;4.00;2.80;;;;;;;;;;5051805;28;20228;-86
2023/08/27 03:12:00;;;;;;;6.03;3.10;;;;;;;;;;5051157;28;20229;-86
2023/08/27 03:14:28;;;;;;;3.23;2.93;;;;;;;;;;5051491;28;20205;-86
2023/08/27 03:16:55;;;;;;;5.70;3.60;;;;;;;;;;5054276;28;20229;-86
2023/08/27 03:19:22;;;;;;;4.10;3.23;;;;;;;;;;5055174;28;20615;-86
2023/08/27 03:21:51;;;;;;;6.37;3.50;;;;;;;;;;5053980;28;20244;-87
2023/08/27 03:24:18;;;;;;;10.47;3.80;;;;;;;;;;5055495;28;20218;-86
2023/08/27 03:26:45;;;;;;;5.70;3.50;;;;;;;;;;5054191;28;20237;-86
2023/08/27 03:29:12;;;;;;;5.70;3.60;;;;;;;;;;5055348;28;20565;-86
2023/08/27 03:31:39;;;;;;;6.37;3.67;;;;;;;;;;5054058;28;20241;-86
2023/08/27 03:34:06;;;;;;;10.07;4.10;;;;;;;;;;5055277;28;20206;-87
2023/08/27 03:36:33;;;;;;;4.00;3.67;;;;;;;;;;5054353;28;20245;-86
2023/08/27 03:39:02;;;;;;;6.03;4.27;;;;;;;;;;5055225;28;20198;-86
2023/08/27 03:41:29;;;;;;;5.67;4.23;;;;;;;;;;5054217;28;20234;-86
2023/08/27 03:43:56;;;;;;;4.80;3.80;;;;;;;;;;5054640;28;20585;-86
2023/08/27 03:46:23;;;;;;;3.30;3.00;;;;;;;;;;5054109;28;20749;-86
2023/08/27 03:48:50;;;;;;;3.70;3.40;;;;;;;;;;5054644;28;20285;-86
2023/08/27 03:51:17;;;;;;;5.47;3.23;;;;;;;;;;5053853;28;20236;-87
2023/08/27 03:53:44;;;;;;;4.30;3.17;;;;;;;;;;5054127;28;20213;-86
2023/08/27 03:56:12;;;;;;;4.37;3.40;;;;;;;;;;5054406;28;20730;-86
2023/08/27 03:58:40;;;;;;;3.97;3.13;;;;;;;;;;5054293;28;20202;-86
2023/08/27 04:01:07;;;;;;;3.93;3.53;;;;;;;;;;5048593;28;20222;-86
2023/08/27 04:03:34;;;;;;;3.87;3.53;;;;;;;;;;5054732;28;20202;-86
2023/08/27 04:06:01;;;;;;;4.37;3.80;;;;;;;;;;5054571;28;20230;-86
2023/08/27 04:08:28;;;;;;;5.33;3.50;;;;;;;;;;5054208;28;20709;-86
2023/08/27 04:10:56;;;;;;;3.47;3.17;;;;;;;;;;5054332;28;20233;-86
2023/08/27 04:13:24;;;;;;;3.50;3.20;;;;;;;;;;5054202;28;20202;-87
2023/08/27 04:15:59;;;;;;;3.47;3.10;;;;;;;;;;5053894;28;20241;-87
2023/08/27 04:18:26;;;;;;;4.43;3.30;;;;;;;;;;5053880;28;20267;-86
2023/08/27 04:20:54;;;;;;;4.07;3.60;;;;;;;;;;5054151;28;20240;-86
2023/08/27 04:23:21;;;;;;;8.47;3.83;;;;;;;;;;5054953;28;20575;-86
2023/08/27 04:25:48;;;;;;;4.20;3.00;;;;;;;;;;5054623;28;20237;-86
2023/08/27 04:28:15;;;;;;;3.37;3.07;;;;;;;;;;5053794;28;20202;-86
2023/08/27 04:30:44;;;;;;;3.23;2.80;;;;;;;;;;5053784;28;20643;-86
2023/08/27 04:33:11;;;;;;;4.53;3.10;;;;;;;;;;5049261;28;20238;-86
2023/08/27 04:35:39;;;;;;;4.10;2.90;;;;;;;;;;5053343;28;20262;-86
2023/08/27 04:38:06;;;;;;;5.27;3.10;;;;;;;;;;5053687;28;20726;-86
2023/08/27 04:40:34;;;;;;;8.60;3.40;;;;;;;;;;5045000;28;20265;-86
2023/08/27 04:43:01;;;;;;;4.63;3.07;;;;;;;;;;5051789;28;20285;-86
2023/08/27 04:45:28;;;;;;;5.60;3.40;;;;;;;;;;5056102;28;20241;-86
2023/08/27 04:47:57;;;;;;;5.80;3.63;;;;;;;;;;5058004;28;20202;-86
2023/08/27 04:50:24;;;;;;;5.23;3.60;;;;;;;;;;5056358;28;20242;-86
2023/08/27 04:52:51;;;;;;;8.40;3.43;;;;;;;;;;5049471;28;20230;-87
2023/08/27 04:55:18;;;;;;;7.27;3.00;;;;;;;;;;5059457;28;20228;-87
2023/08/27 04:57:45;;;;;;;5.13;3.30;;;;;;;;;;5053528;28;20665;-86
2023/08/27 05:00:20;;;;;;;3.83;3.00;;;;;;;;;;5052847;28;20202;-86
2023/08/27 05:02:47;;;;;;;3.10;2.80;;;;;;;;;;5044607;28;20197;-86
2023/08/27 05:05:16;;;;;;;6.10;4.60;;;;;;;;;;5053302;28;20201;-87
2023/08/27 05:07:43;;;;;;;5.93;3.30;;;;;;;;;;5054125;28;20237;-86
2023/08/27 05:10:10;;;;;;;5.07;3.53;;;;;;;;;;5052859;28;20198;-86
2023/08/27 05:12:37;;;;;;;4.93;3.20;;;;;;;;;;5053571;28;20218;-86
2023/08/27 05:15:05;;;;;;;4.13;3.60;;;;;;;;;;5053208;28;20293;-86
2023/08/27 05:17:33;;;;;;;3.60;3.23;;;;;;;;;;5053252;28;20206;-86
2023/08/27 05:20:00;;;;;;;6.07;3.83;;;;;;;;;;5053210;28;20202;-86
2023/08/27 05:22:28;;;;;;;8.73;3.53;;;;;;;;;;5052052;28;20240;-86
2023/08/27 05:24:55;;;;;;;3.53;3.23;;;;;;;;;;5053692;28;20209;-86
2023/08/27 05:27:22;;;;;;;8.50;4.00;;;;;;;;;;5052697;28;20229;-87
2023/08/27 05:29:49;;;;;;;3.80;3.50;;;;;;;;;;5053283;28;20690;-86
2023/08/27 05:32:16;;;;;;;7.43;3.83;;;;;;;;;;5049928;28;20692;-86
2023/08/27 05:34:43;;;;;;;5.37;3.57;;;;;;;;;;5048663;28;20564;-86
2023/08/27 05:37:10;;;;;;;4.13;3.50;;;;;;;;;;5052437;28;20225;-86
2023/08/27 05:39:39;;;;;;;5.90;4.13;;;;;;;;;;5039279;28;20221;-86
2023/08/27 05:42:06;;;;;;;3.60;3.30;;;;;;;;;;5052986;28;20606;-87
2023/08/27 05:44:33;;;;;;;6.87;3.77;;;;;;;;;;5053183;28;20301;-86
2023/08/27 05:47:00;;;;;;;5.10;3.70;;;;;;;;;;5052418;28;20258;-86
2023/08/27 05:49:27;;;;;;;6.70;3.33;;;;;;;;;;5053244;28;20216;-86
2023/08/27 05:51:54;;;;;;;5.03;4.07;;;;;;;;;;5052612;28;20248;-86
2023/08/27 05:54:21;;;;;;;7.67;3.90;;;;;;;;;;5053446;28;20228;-87
2023/08/27 05:56:50;;;;;;;5.93;3.90;;;;;;;;;;5052983;28;20237;-85
2023/08/27 05:59:17;;;;;;;10.27;4.47;;;;;;;;;;5052744;28;20205;-86
2023/08/27 06:01:44;;;;;;;5.00;3.70;;;;;;;;;;5052258;28;20221;-87
2023/08/27 06:04:11;;;;;;;6.60;4.07;;;;;;;;;;5053643;28;20201;-86
2023/08/27 06:06:40;;;;;;;5.67;3.93;;;;;;;;;;5045035;28;20594;-86
2023/08/27 06:09:07;;;;;;;10.57;4.47;;;;;;;;;;5051406;28;20297;-84
2023/08/27 06:11:34;;;;;;;5.07;4.13;;;;;;;;;;5050890;28;20240;-83
2023/08/27 06:14:03;;;;;;;5.23;4.43;;;;;;;;;;5052276;28;20205;-84
2023/08/27 06:16:30;;;;;;;4.57;4.10;;;;;;;;;;5055267;28;20312;-84
2023/08/27 06:18:57;;;;;;;6.50;4.77;;;;;;;;;;5060034;28;20275;-84
2023/08/27 06:21:24;;;;;;;5.10;4.60;;;;;;;;;;5059233;28;20309;-83
2023/08/27 06:23:51;;;;;;;8.80;4.90;;;;;;;;;;5059041;28;20694;-84
2023/08/27 06:26:18;;;;;;;5.00;4.40;;;;;;;;;;5054323;28;20244;-84
2023/08/27 06:28:46;;;;;;;5.53;4.53;;;;;;;;;;5052351;28;20664;-84
2023/08/27 06:31:15;;;;;;;6.70;4.70;;;;;;;;;;5051431;28;20229;-84
2023/08/27 06:33:42;;;;;;;5.47;4.37;;;;;;;;;;5043357;28;20567;-83
2023/08/27 06:36:09;;;;;;;6.30;4.63;;;;;;;;;;5046728;28;20634;-84
2023/08/27 06:38:36;;;;;;;8.87;5.17;;;;;;;;;;5051393;28;20209;-84
2023/08/27 06:41:03;;;;;;;5.30;4.80;;;;;;;;;;5050896;28;20249;-84
2023/08/27 06:43:30;;;;;;;7.37;5.00;;;;;;;;;;5051387;28;20206;-84
2023/08/27 06:45:57;;;;;;;7.80;4.90;;;;;;;;;;5051014;28;20245;-84
2023/08/27 06:48:25;;;;;;;9.40;4.50;;;;;;;;;;5051848;28;20199;-83
2023/08/27 06:50:52;;;;;;;7.70;4.07;;;;;;;;;;5053696;28;20241;-83
2023/08/27 06:53:20;;;;;;;6.07;4.23;;;;;;;;;;5056374;28;20236;-84
2023/08/27 06:55:49;;;;;;;7.03;4.90;;;;;;;;;;5055533;28;20226;-84
2023/08/27 06:58:16;;;;;;;11.40;5.00;;;;;;;;;;5053067;28;20199;-85
2023/08/27 07:00:44;;;;;;;7.07;3.97;;;;;;;;;;5054124;28;20233;-85
2023/08/27 07:03:12;;;;;;;7.20;4.27;;;;;;;;;;5055837;28;20198;-85
2023/08/27 07:05:41;;;;;;;9.23;4.30;;;;;;;;;;5052683;28;20241;-85
2023/08/27 07:08:08;;;;;;;4.60;4.20;;;;;;;;;;5054954;28;20856;-84
2023/08/27 07:10:35;;;;;;;5.73;4.80;;;;;;;;;;5051125;28;20246;-84
2023/08/27 07:13:04;;;;;;;9.45;4.82;;;;;;;;;;5054663;28;20249;-84
2023/08/27 07:15:31;;;;;;;7.53;5.33;;;;;;;;;;5053069;28;20230;-84
2023/08/27 07:17:58;;;;;;;4.77;3.93;;;;;;;;;;5048700;28;20588;-84
2023/08/27 07:20:26;;;;;;;6.37;4.47;;;;;;;;;;5053498;28;20229;-84
2023/08/27 07:22:54;;;;;;;7.40;4.87;;;;;;;;;;5052448;28;20244;-84
2023/08/27 07:25:23;;;;;;;6.40;4.37;;;;;;;;;;5050638;28;20198;-84
2023/08/27 07:27:50;;;;;;;6.37;4.20;;;;;;;;;;5049537;28;20293;-84
2023/08/27 07:30:17;;;;;;;5.57;4.63;;;;;;;;;;5042517;28;20661;-84
2023/08/27 07:32:44;;;;;;;5.65;4.72;;;;;;;;;;5039277;28;20848;-84
2023/08/27 07:35:11;;;;;;;8.00;4.80;;;;;;;;;;5053457;28;20690;-80
2023/08/27 07:37:38;;;;;;;5.45;4.60;;;;;;;;;;5051189;28;20214;-84
2023/08/27 07:40:10;;;;;;;6.95;4.78;;;;;;;;;;5053525;28;20564;-85
2023/08/27 07:42:37;;;;;;;5.65;4.43;;;;;;;;;;5054200;28;20201;-85
2023/08/27 07:45:04;;;;;;;6.57;5.15;;;;;;;;;;5053177;28;20202;-85
2023/08/27 07:47:31;;;;;;;6.07;4.83;;;;;;;;;;5052997;28;20680;-85
2023/08/27 07:49:59;;;;;;;17.45;5.32;;;;;;;;;;5054319;28;20202;-85
2023/08/27 07:52:26;;;;;;;10.68;5.30;;;;;;;;;;5053004;28;20230;-85
2023/08/27 07:54:53;;;;;;;7.57;6.05;;;;;;;;;;5052848;28;20202;-86
2023/08/27 07:57:21;;;;;;;8.38;5.45;;;;;;;;;;5053406;28;20371;-86
2023/08/27 07:59:51;;;;;;;6.30;4.68;;;;;;;;;;5054737;28;20655;-86
2023/08/27 08:02:18;;;;;;;6.47;5.47;;;;;;;;;;5056617;28;20230;-86
2023/08/27 08:04:45;;;;;;;6.22;5.32;;;;;;;;;;5058801;28;20212;-86
2023/08/27 08:07:13;;;;;;;5.85;5.13;;;;;;;;;;5055386;28;20226;-86
2023/08/27 08:09:41;;;;;;;8.30;5.60;;;;;;;;;;5054475;28;20206;-86
2023/08/27 08:12:10;;;;;;;8.07;4.90;;;;;;;;;;5054789;28;20230;-86
2023/08/27 08:14:39;;;;;;;6.22;5.60;;;;;;;;;;5054260;28;20206;-85
2023/08/27 08:17:06;;;;;;;5.20;4.70;;;;;;;;;;5054062;28;20229;-85
2023/08/27 08:19:33;;;;;;;6.57;4.78;;;;;;;;;;5056333;28;20300;-87
2023/08/27 08:22:00;;;;;;;6.95;5.28;;;;;;;;;;5058608;28;20244;-89
2023/08/27 08:24:27;;;;;;;7.88;5.25;;;;;;;;;;5060232;28;20194;-88
2023/08/27 08:26:54;;;;;;;6.10;5.00;;;;;;;;;;5060218;28;20226;-88
2023/08/27 08:29:22;;;;;;;5.07;4.55;;;;;;;;;;5060988;28;20260;-88
2023/08/27 08:31:50;;;;;;;8.20;4.50;;;;;;;;;;5059716;28;20237;-88
2023/08/27 08:34:17;;;;;;;7.47;4.30;;;;;;;;;;5059948;28;20719;-88
2023/08/27 08:36:44;;;;;;;6.63;4.93;;;;;;;;;;5059455;28;20229;-88
2023/08/27 08:39:12;;;;;;;7.28;4.93;;;;;;;;;;5057515;28;20198;-88
2023/08/27 08:41:41;;;;;;;6.40;4.72;;;;;;;;;;5055222;28;20280;-88
2023/08/27 08:44:11;;;;;;;8.05;4.95;;;;;;;;;;5055140;28;20252;-88
2023/08/27 08:46:39;;;;;;;7.03;4.78;;;;;;;;;;5054482;28;20230;-87
2023/08/27 08:49:12;;;;;;;7.05;4.90;;;;;;;;;;5054776;28;20668;-87
2023/08/27 08:51:39;;;;;;;6.55;5.13;;;;;;;;;;5054745;28;20240;-89
2023/08/27 08:54:08;;;;;;;7.13;4.85;;;;;;;;;;5055576;28;20225;-88
2023/08/27 08:56:37;;;;;;;5.82;4.97;;;;;;;;;;5054480;28;20233;-87
2023/08/27 08:59:05;;;;;;;6.15;4.90;;;;;;;;;;5054821;28;20201;-87
2023/08/27 09:01:32;;;;;;;7.15;4.20;;;;;;;;;;5051983;28;20244;-84
2023/08/27 09:04:00;;;;;;;4.35;3.75;;;;;;;;;;5052628;28;20540;-84
2023/08/27 09:06:29;;;;;;;4.85;4.38;;;;;;;;;;5054721;28;20238;-86
2023/08/27 09:08:57;;;;;;;7.30;4.25;;;;;;;;;;5056715;28;20237;-84
2023/08/27 09:11:26;;;;;;;4.03;3.53;;;;;;;;;;5056145;28;20234;-85
2023/08/27 09:13:54;;;;;;;4.00;3.47;;;;;;;;;;5055192;28;20636;-86
2023/08/27 09:16:21;;;;;;;4.55;3.53;;;;;;;;;;5050875;28;20230;-85
2023/08/27 09:18:48;;;;;;;3.63;3.33;;;;;;;;;;5055140;28;20206;-85
2023/08/27 09:21:15;;;;;;;4.25;2.90;;;;;;;;;;5054067;28;20234;-85
2023/08/27 09:23:44;;;;;;;3.65;2.92;;;;;;;;;;5053908;28;20206;-85
2023/08/27 09:26:12;;;;;;;6.40;3.38;;;;;;;;;;5055279;28;20230;-84
2023/08/27 09:28:39;;;;;;;3.85;3.05;;;;;;;;;;5050964;28;20213;-84
2023/08/27 09:31:10;;;;;;;4.47;3.10;;;;;;;;;;5048117;28;20237;-84
2023/08/27 09:33:39;;;;;;;5.82;3.38;;;;;;;;;;5052290;28;20226;-84
2023/08/27 09:36:07;;;;;;;3.85;2.90;;;;;;;;;;5058337;28;20229;-88
2023/08/27 09:38:34;;;;;;;4.65;3.30;;;;;;;;;;5059371;28;20236;-86
2023/08/27 09:41:12;;;;;;;4.72;3.42;;;;;;;;;;5054578;28;20237;-86
2023/08/27 09:43:39;;;;;;;3.25;2.38;;;;;;;;;;5054783;28;20202;-86
2023/08/27 09:46:10;;;;;;;4.22;2.20;;;;;;;;;;5054687;28;20226;-86
2023/08/27 09:48:37;;;;;;;3.42;2.60;;;;;;;;;;5055352;28;20206;-86
2023/08/27 09:51:05;;;;;;;3.03;2.53;;;;;;;;;;5054221;28;20230;-86
2023/08/27 09:53:33;;;;;;;5.65;2.92;;;;;;;;;;5054442;28;20230;-86
2023/08/27 09:56:02;;;;;;;4.93;2.80;;;;;;;;;;5053805;28;20226;-87
2023/08/27 09:58:31;;;;;;;2.92;2.58;;;;;;;;;;5054043;28;20684;-86
2023/08/27 10:01:03;;;;;;;3.70;2.80;;;;;;;;;;5053303;28;20254;-85
2023/08/27 10:03:30;;;;;;;2.45;2.25;;;;;;;;;;5053956;28;20213;-86
2023/08/27 10:05:57;;;;;;;2.85;2.25;;;;;;;;;;5054245;28;20221;-86
2023/08/27 10:08:25;;;;;;;5.13;2.70;;;;;;;;;;5054288;28;20576;-86
2023/08/27 10:10:52;;;;;;;3.35;2.53;;;;;;;;;;5053651;28;20687;-85
2023/08/27 10:13:21;;;;;;;6.65;2.28;;;;;;;;;;5049374;28;20695;-86
2023/08/27 10:15:50;;;;;;;2.70;2.40;;;;;;;;;;5054182;28;20324;-86
2023/08/27 10:18:17;;;;;;;5.05;2.40;;;;;;;;;;5053922;28;20206;-86
2023/08/27 10:20:44;;;;;;;2.30;2.10;;;;;;;;;;5052062;28;20237;-87
2023/08/27 10:23:12;;;;;;;2.50;2.30;;;;;;;;;;5052957;28;20198;-87
2023/08/27 10:25:39;;;;;;;3.67;2.63;;;;;;;;;;5056209;28;20233;-87
2023/08/27 10:28:08;;;;;;;3.95;2.20;;;;;;;;;;5057013;28;20209;-87
2023/08/27 10:30:36;;;;;;;3.50;2.55;;;;;;;;;;5055930;28;20245;-87
2023/08/27 10:33:04;;;;;;;2.10;1.90;;;;;;;;;;5055398;28;20261;-87
2023/08/27 10:35:34;;;;;;;3.60;2.38;;;;;;;;;;5055373;28;20245;-86
2023/08/27 10:38:02;;;;;;;2.42;2.22;;;;;;;;;;5055325;28;20226;-88
2023/08/27 10:40:30;;;;;;;3.75;2.35;;;;;;;;;;5056478;28;20229;-87
2023/08/27 10:43:08;;;;;;;4.60;2.50;;;;;;;;;;5049997;28;20210;-88
2023/08/27 10:45:38;;;;;;;4.32;1.98;;;;;;;;;;5056113;28;20237;-89
2023/08/27 10:48:11;;;;;;;2.50;2.30;;;;;;;;;;5056976;28;20604;-87
2023/08/27 10:50:46;;;;;;;3.90;2.55;;;;;;;;;;5056099;28;20599;-88
2023/08/27 10:53:14;;;;;;;4.38;2.42;;;;;;;;;;5057112;28;20324;-87
2023/08/27 10:55:43;;;;;;;4.03;2.50;;;;;;;;;;5056008;28;20237;-87
2023/08/27 10:58:17;;;;;;;2.38;2.17;;;;;;;;;;5056972;28;20202;-87
2023/08/27 11:00:59;;;;;;;2.53;2.33;;;;;;;;;;5055876;28;20318;-87
2023/08/27 11:03:27;;;;;;;5.38;2.63;;;;;;;;;;5052398;28;20251;-87
2023/08/27 11:06:09;;;;;;;2.33;2.00;;;;;;;;;;5055125;28;20234;-87
2023/08/27 11:08:37;;;;;;;2.85;2.50;;;;;;;;;;5056076;28;20209;-85
2023/08/27 11:11:11;;;;;;;2.40;2.03;;;;;;;;;;5055127;28;20317;-85
2023/08/27 11:13:39;;;;;;;5.88;2.25;;;;;;;;;;5055917;28;20720;-86
2023/08/27 11:16:09;;;;;;;3.17;2.65;;;;;;;;;;5055470;28;20226;-86
2023/08/27 11:18:45;;;;;;;3.03;2.28;;;;;;;;;;5051320;28;20236;-86
2023/08/27 11:21:22;;;;;;;2.40;2.20;;;;;;;;;;5055259;28;20230;-85
2023/08/27 11:24:04;;;;;;;2.42;1.80;;;;;;;;;;5054678;28;20289;-87
2023/08/27 11:26:31;;;;;;;3.53;2.45;;;;;;;;;;5046416;28;20291;-85
2023/08/27 11:28:58;;;;;;;3.20;2.25;;;;;;;;;;5055858;28;20218;-86
2023/08/27 11:31:26;;;;;;;2.97;1.95;;;;;;;;;;5055401;28;20234;-87
2023/08/27 11:33:55;;;;;;;2.55;1.85;;;;;;;;;;5056073;28;20222;-86
2023/08/27 11:36:22;;;;;;;1.90;1.80;;;;;;;;;;5056032;28;20309;-87
2023/08/27 11:38:49;;;;;;;2.15;1.95;;;;;;;;;;5056662;28;20669;-86
2023/08/27 11:41:16;;;;;;;2.55;1.75;;;;;;;;;;5055490;28;20237;-85
2023/08/27 11:43:43;;;;;;;3.28;2.45;;;;;;;;;;5055131;28;20213;-85
2023/08/27 11:46:21;;;;;;;1.90;1.80;;;;;;;;;;5054787;28;20222;-84
2023/08/27 11:48:48;;;;;;;1.98;1.38;;;;;;;;;;5054482;28;20656;-85
2023/08/27 11:51:17;;;;;;;1.98;1.88;;;;;;;;;;5054067;28;20236;-85
2023/08/27 11:53:44;;;;;;;2.80;1.92;;;;;;;;;;5055066;28;20711;-84
2023/08/27 11:56:11;;;;;;;2.28;1.85;;;;;;;;;;5054115;28;20225;-84
2023/08/27 11:58:39;;;;;;;4.97;3.15;;;;;;;;;;5055098;28;20205;-86
2023/08/27 12:01:07;;;;;;;2.28;1.80;;;;;;;;;;5053272;28;20611;-86
2023/08/27 12:03:34;;;;;;;2.05;1.75;;;;;;;;;;5055257;28;20202;-85
2023/08/27 12:06:01;;;;;;;2.42;1.52;;;;;;;;;;5045114;28;20229;-82
2023/08/27 12:08:35;;;;;;;2.10;1.90;;;;;;;;;;5054363;28;20202;-84
2023/08/27 12:11:04;;;;;;;3.35;1.55;;;;;;;;;;5057418;28;20321;-88
2023/08/27 12:13:31;;;;;;;2.60;1.65;;;;;;;;;;5049254;28;20709;-90
2023/08/27 12:15:58;;;;;;;2.42;1.70;;;;;;;;;;5052092;28;20230;-91
2023/08/27 12:18:32;;;;;;;1.60;1.50;;;;;;;;;;5056736;28;20190;-89
2023/08/27 12:21:04;;;;;;;2.00;1.80;;;;;;;;;;5048713;28;20289;-87
2023/08/27 12:23:33;;;;;;;2.92;1.85;;;;;;;;;;5058771;28;20218;-89
2023/08/27 12:26:02;;;;;;;2.13;1.92;;;;;;;;;;5057335;28;20324;-87
2023/08/27 12:28:30;;;;;;;2.35;2.00;;;;;;;;;;5056799;28;20220;-88
2023/08/27 12:30:58;;;;;;;2.72;1.98;;;;;;;;;;5056970;28;20249;-87
2023/08/27 12:33:37;;;;;;;2.20;2.00;;;;;;;;;;5055911;28;20206;-86
2023/08/27 12:36:05;;;;;;;6.15;2.00;;;;;;;;;;5040434;28;20226;-89
2023/08/27 12:38:33;;;;;;;3.13;1.73;;;;;;;;;;5056089;28;20293;-88
2023/08/27 12:41:01;;;;;;;3.17;1.70;;;;;;;;;;5054091;28;20722;-87
2023/08/27 12:43:28;;;;;;;2.45;1.80;;;;;;;;;;5055063;28;20225;-86
2023/08/27 12:45:55;;;;;;;3.55;1.85;;;;;;;;;;5055294;28;20316;-87
2023/08/27 12:48:22;;;;;;;1.85;1.58;;;;;;;;;;5054576;28;20198;-87
2023/08/27 12:50:49;;;;;;;2.55;1.25;;;;;;;;;;5055877;28;20735;-87
2023/08/27 12:53:17;;;;;;;2.08;1.42;;;;;;;;;;5046926;28;20228;-85
2023/08/27 12:55:46;;;;;;;1.40;1.30;;;;;;;;;;5053467;28;20551;-90
2023/08/27 12:58:13;;;;;;;2.15;1.30;;;;;;;;;;5054121;28;20198;-88
2023/08/27 13:00:40;;;;;;;1.27;1.08;;;;;;;;;;5055517;28;20238;-88
2023/08/27 13:03:07;;;;;;;1.65;1.33;;;;;;;;;;5055930;28;20213;-88
2023/08/27 13:05:34;;;;;;;1.85;1.55;;;;;;;;;;5055093;28;20242;-88
2023/08/27 13:08:02;;;;;;;1.98;1.17;;;;;;;;;;5050290;28;20206;-87
2023/08/27 13:10:29;;;;;;;1.73;1.35;;;;;;;;;;5058625;28;20703;-89
2023/08/27 13:12:57;;;;;;;1.60;1.50;;;;;;;;;;5060864;28;20212;-88
2023/08/27 13:15:25;;;;;;;1.60;1.50;;;;;;;;;;5057020;28;20236;-88
2023/08/27 13:17:52;;;;;;;2.38;1.10;;;;;;;;;;5060132;28;20202;-88
2023/08/27 13:20:20;;;;;;;1.75;1.48;;;;;;;;;;5061703;28;20205;-88
2023/08/27 13:22:47;;;;;;;1.30;1.30;;;;;;;;;;5063931;28;20241;-91
2023/08/27 13:25:14;;;;;;;4.07;1.38;;;;;;;;;;5065012;28;20202;-91
2023/08/27 13:27:42;;;;;;;1.95;1.52;;;;;;;;;;5064279;28;20265;-91
2023/08/27 13:30:11;;;;;;;1.98;1.40;;;;;;;;;;5064525;28;20257;-94
2023/08/27 13:32:38;;;;;;;2.50;1.38;;;;;;;;;;5064956;28;20193;-92
2023/08/27 13:35:05;;;;;;;1.60;1.50;;;;;;;;;;5065000;28;20241;-93
2023/08/27 13:37:33;;;;;;;1.70;1.55;;;;;;;;;;5065495;28;20206;-92
2023/08/27 13:40:00;;;;;;;1.60;1.50;;;;;;;;;;5063409;28;20324;-89
2023/08/27 13:42:27;;;;;;;2.22;1.30;;;;;;;;;;5064274;28;20308;-90
2023/08/27 13:44:54;;;;;;;2.38;1.42;;;;;;;;;;5064098;28;20327;-92
2023/08/27 13:47:23;;;;;;;1.85;1.58;;;;;;;;;;5064303;28;20221;-89
2023/08/27 13:49:50;;;;;;;2.13;1.63;;;;;;;;;;5067129;28;20232;-94
2023/08/27 13:52:18;;;;;;;2.92;1.77;;;;;;;;;;5064580;28;20238;-92
2023/08/27 13:54:46;;;;;;;1.52;1.40;;;;;;;;;;5066043;28;20244;-92
2023/08/27 13:57:13;;;;;;;1.38;1.27;;;;;;;;;;5063769;28;20287;-93
2023/08/27 13:59:41;;;;;;;1.77;1.60;;;;;;;;;;5063596;28;20198;-92
2023/08/27 14:02:09;;;;;;;1.95;1.80;;;;;;;;;;5063454;28;20268;-92
2023/08/27 14:04:38;;;;;;;2.10;1.52;;;;;;;;;;5062888;28;20687;-90
2023/08/27 14:07:05;;;;;;;2.35;2.15;;;;;;;;;;5062473;28;20680;-91
2023/08/27 14:09:33;;;;;;;1.70;1.50;;;;;;;;;;5062239;28;20692;-92
2023/08/27 14:12:00;;;;;;;1.10;1.00;;;;;;;;;;5061741;28;20268;-92
2023/08/27 14:14:28;;;;;;;3.72;1.33;;;;;;;;;;5064449;28;20676;-93
2023/08/27 14:16:55;;;;;;;1.48;1.38;;;;;;;;;;5065910;28;20289;-93
2023/08/27 14:19:22;;;;;;;1.50;1.40;;;;;;;;;;5066306;28;20198;-95
2023/08/27 14:21:51;;;;;;;1.73;1.38;;;;;;;;;;5062639;28;20260;-94
2023/08/27 14:24:18;;;;;;;2.20;1.40;;;;;;;;;;5061686;28;20277;-92
2023/08/27 14:26:45;;;;;;;1.35;1.25;;;;;;;;;;5060761;28;20807;-95
2023/08/27 14:29:13;;;;;;;1.50;1.17;;;;;;;;;;5061445;28;20207;-91
2023/08/27 14:31:40;;;;;;;1.75;1.40;;;;;;;;;;5060905;28;20233;-89
2023/08/27 14:34:08;;;;;;;1.58;1.30;;;;;;;;;;5053982;28;20212;-88
2023/08/27 14:36:35;;;;;;;2.03;1.67;;;;;;;;;;5061887;28;20225;-90
2023/08/27 14:39:04;;;;;;;1.27;1.20;;;;;;;;;;5061857;28;20202;-90
2023/08/27 14:41:31;;;;;;;1.58;1.35;;;;;;;;;;5060027;28;20234;-90
2023/08/27 14:43:58;;;;;;;1.50;1.40;;;;;;;;;;5063962;28;20289;-92
2023/08/27 14:46:25;;;;;;;1.30;1.20;;;;;;;;;;5064461;28;20245;-91